sensor_id;sensor_type;location;lat;lon;timestamp;temperature;humidity
21906;DHT22;11117;48.644;9.006;2022-09-09T00:03:50;14.10;99.90
21906;DHT22;11117;48.644;9.006;2022-09-09T00:06:24;14.10;99.90
21906;DHT22;11117;48.644;9.006;2022-09-09T00:09:10;14.20;99.90
21906;DHT22;11117;48.644;9.006;2022-09-09T00:11:43;14.30;99.90
21906;DHT22;11117;48.644;9.006;2022-09-09T00:14:42;14.30;99.90
21906;DHT22;11117;48.644;9.006;2022-09-09T00:17:18;14.40;99.90
21906;DHT22;11117;48.644;9.006;2022-09-09T00:19:59;14.40;99.90
21906;DHT22;11117;48.644;9.006;2022-09-09T00:22:29;14.40;99.90
21906;DHT22;11117;48.644;9.006;2022-09-09T00:27:41;14.40;99.90
21906;DHT22;11117;48.644;9.006;2022-09-09T00:30:18;14.40;99.90
21906;DHT22;11117;48.644;9.006;2022-09-09T00:32:44;14.40;99.90
21906;DHT22;11117;48.644;9.006;2022-09-09T00:37:36;14.50;99.90
21906;DHT22;11117;48.644;9.006;2022-09-09T00:40:12;14.50;99.90
21906;DHT22;11117;48.644;9.006;2022-09-09T00:42:43;14.60;99.90
21906;DHT22;11117;48.644;9.006;2022-09-09T00:45:29;14.60;99.90
21906;DHT22;11117;48.644;9.006;2022-09-09T00:48:04;14.60;99.90
21906;DHT22;11117;48.644;9.006;2022-09-09T00:51:05;14.60;99.90
21906;DHT22;11117;48.644;9.006;2022-09-09T00:53:41;14.70;99.90
21906;DHT22;11117;48.644;9.006;2022-09-09T00:56:13;14.70;99.90
21906;DHT22;11117;48.644;9.006;2022-09-09T00:58:38;14.70;99.90
21906;DHT22;11117;48.644;9.006;2022-09-09T01:01:10;14.80;99.90
21906;DHT22;11117;48.644;9.006;2022-09-09T01:03:42;14.90;99.90
21906;DHT22;11117;48.644;9.006;2022-09-09T01:06:29;15.00;99.90
21906;DHT22;11117;48.644;9.006;2022-09-09T01:09:22;15.00;99.90
21906;DHT22;11117;48.644;9.006;2022-09-09T01:14:38;15.00;99.90
21906;DHT22;11117;48.644;9.006;2022-09-09T01:17:23;15.00;99.90
21906;DHT22;11117;48.644;9.006;2022-09-09T01:20:12;15.00;99.90
21906;DHT22;11117;48.644;9.006;2022-09-09T01:23:09;14.90;99.90
21906;DHT22;11117;48.644;9.006;2022-09-09T01:28:52;14.70;99.90
21906;DHT22;11117;48.644;9.006;2022-09-09T01:31:39;14.70;99.90
21906;DHT22;11117;48.644;9.006;2022-09-09T01:34:13;14.70;99.90
21906;DHT22;11117;48.644;9.006;2022-09-09T01:39:14;14.70;99.90
21906;DHT22;11117;48.644;9.006;2022-09-09T01:41:40;14.70;99.90
21906;DHT22;11117;48.644;9.006;2022-09-09T01:44:07;14.70;99.90
21906;DHT22;11117;48.644;9.006;2022-09-09T01:46:33;14.70;99.90
21906;DHT22;11117;48.644;9.006;2022-09-09T01:49:00;14.70;99.90
21906;DHT22;11117;48.644;9.006;2022-09-09T01:51:27;14.70;99.90
21906;DHT22;11117;48.644;9.006;2022-09-09T01:53:53;14.70;99.90
21906;DHT22;11117;48.644;9.006;2022-09-09T01:56:43;14.70;99.90
21906;DHT22;11117;48.644;9.006;2022-09-09T02:02:09;14.40;99.90
21906;DHT22;11117;48.644;9.006;2022-09-09T02:04:40;14.30;99.90
21906;DHT22;11117;48.644;9.006;2022-09-09T02:10:20;14.20;99.90
21906;DHT22;11117;48.644;9.006;2022-09-09T02:12:55;14.00;99.90
21906;DHT22;11117;48.644;9.006;2022-09-09T02:17:56;13.90;99.90
21906;DHT22;11117;48.644;9.006;2022-09-09T02:20:23;14.00;99.90
21906;DHT22;11117;48.644;9.006;2022-09-09T02:22:54;13.90;99.90
21906;DHT22;11117;48.644;9.006;2022-09-09T02:25:23;13.90;99.90
21906;DHT22;11117;48.644;9.006;2022-09-09T02:27:50;13.90;99.90
21906;DHT22;11117;48.644;9.006;2022-09-09T02:30:17;13.80;99.90
21906;DHT22;11117;48.644;9.006;2022-09-09T02:32:46;13.70;99.90
21906;DHT22;11117;48.644;9.006;2022-09-09T02:35:17;13.60;99.90
21906;DHT22;11117;48.644;9.006;2022-09-09T02:37:44;13.50;99.90
21906;DHT22;11117;48.644;9.006;2022-09-09T02:40:12;13.50;99.90
21906;DHT22;11117;48.644;9.006;2022-09-09T02:42:46;13.40;99.90
21906;DHT22;11117;48.644;9.006;2022-09-09T02:45:15;13.40;99.90
21906;DHT22;11117;48.644;9.006;2022-09-09T02:48:14;13.40;99.90
21906;DHT22;11117;48.644;9.006;2022-09-09T02:54:30;13.50;99.90
21906;DHT22;11117;48.644;9.006;2022-09-09T02:57:06;13.50;99.90
21906;DHT22;11117;48.644;9.006;2022-09-09T02:59:34;13.60;99.90
21906;DHT22;11117;48.644;9.006;2022-09-09T03:02:00;13.70;99.90
21906;DHT22;11117;48.644;9.006;2022-09-09T03:04:25;13.60;99.90
21906;DHT22;11117;48.644;9.006;2022-09-09T03:06:51;13.60;99.90
21906;DHT22;11117;48.644;9.006;2022-09-09T03:09:19;13.70;99.90
21906;DHT22;11117;48.644;9.006;2022-09-09T03:11:45;13.60;99.90
21906;DHT22;11117;48.644;9.006;2022-09-09T03:14:10;13.70;99.90
21906;DHT22;11117;48.644;9.006;2022-09-09T03:16:36;13.70;99.90
21906;DHT22;11117;48.644;9.006;2022-09-09T03:19:02;13.70;99.90
21906;DHT22;11117;48.644;9.006;2022-09-09T03:21:27;13.70;99.90
21906;DHT22;11117;48.644;9.006;2022-09-09T03:23:53;13.70;99.90
21906;DHT22;11117;48.644;9.006;2022-09-09T03:26:18;13.70;99.90
21906;DHT22;11117;48.644;9.006;2022-09-09T03:28:44;13.80;99.90
21906;DHT22;11117;48.644;9.006;2022-09-09T03:31:10;13.80;99.90
21906;DHT22;11117;48.644;9.006;2022-09-09T03:33:37;13.80;99.90
21906;DHT22;11117;48.644;9.006;2022-09-09T03:36:03;13.70;99.90
21906;DHT22;11117;48.644;9.006;2022-09-09T03:38:29;13.70;99.90
21906;DHT22;11117;48.644;9.006;2022-09-09T03:40:56;13.70;99.90
21906;DHT22;11117;48.644;9.006;2022-09-09T03:43:22;13.70;99.90
21906;DHT22;11117;48.644;9.006;2022-09-09T03:45:48;13.80;99.90
21906;DHT22;11117;48.644;9.006;2022-09-09T03:48:14;13.80;99.90
21906;DHT22;11117;48.644;9.006;2022-09-09T03:50:47;13.80;99.90
21906;DHT22;11117;48.644;9.006;2022-09-09T03:53:14;13.80;99.90
21906;DHT22;11117;48.644;9.006;2022-09-09T03:55:48;13.80;99.90
21906;DHT22;11117;48.644;9.006;2022-09-09T03:58:15;13.80;99.90
21906;DHT22;11117;48.644;9.006;2022-09-09T04:00:41;13.80;99.90
21906;DHT22;11117;48.644;9.006;2022-09-09T04:03:07;13.80;99.90
21906;DHT22;11117;48.644;9.006;2022-09-09T04:05:32;13.80;99.90
21906;DHT22;11117;48.644;9.006;2022-09-09T04:07:58;13.80;99.90
21906;DHT22;11117;48.644;9.006;2022-09-09T04:10:24;13.90;99.90
21906;DHT22;11117;48.644;9.006;2022-09-09T04:12:50;13.90;99.90
21906;DHT22;11117;48.644;9.006;2022-09-09T04:15:15;13.90;99.90
21906;DHT22;11117;48.644;9.006;2022-09-09T04:17:41;14.00;99.90
21906;DHT22;11117;48.644;9.006;2022-09-09T04:20:07;14.10;99.90
21906;DHT22;11117;48.644;9.006;2022-09-09T04:22:32;14.10;99.90
21906;DHT22;11117;48.644;9.006;2022-09-09T04:24:58;14.10;99.90
21906;DHT22;11117;48.644;9.006;2022-09-09T04:27:23;14.20;99.90
21906;DHT22;11117;48.644;9.006;2022-09-09T04:29:49;14.20;99.90
21906;DHT22;11117;48.644;9.006;2022-09-09T04:32:14;14.30;99.90
21906;DHT22;11117;48.644;9.006;2022-09-09T04:34:40;14.30;99.90
21906;DHT22;11117;48.644;9.006;2022-09-09T04:37:06;14.40;99.90
21906;DHT22;11117;48.644;9.006;2022-09-09T04:39:31;14.40;99.90
21906;DHT22;11117;48.644;9.006;2022-09-09T04:41:57;14.40;99.90
21906;DHT22;11117;48.644;9.006;2022-09-09T04:44:22;14.40;99.90
21906;DHT22;11117;48.644;9.006;2022-09-09T04:46:48;14.40;99.90
21906;DHT22;11117;48.644;9.006;2022-09-09T04:49:13;14.40;99.90
21906;DHT22;11117;48.644;9.006;2022-09-09T04:51:39;14.40;99.90
21906;DHT22;11117;48.644;9.006;2022-09-09T04:54:04;14.50;99.90
21906;DHT22;11117;48.644;9.006;2022-09-09T04:56:30;14.50;99.90
21906;DHT22;11117;48.644;9.006;2022-09-09T04:58:56;14.50;99.90
21906;DHT22;11117;48.644;9.006;2022-09-09T05:01:22;14.40;99.90
21906;DHT22;11117;48.644;9.006;2022-09-09T05:03:47;14.40;99.90
21906;DHT22;11117;48.644;9.006;2022-09-09T05:06:19;14.50;99.90
21906;DHT22;11117;48.644;9.006;2022-09-09T05:08:45;14.60;99.90
21906;DHT22;11117;48.644;9.006;2022-09-09T05:11:22;14.50;99.90
21906;DHT22;11117;48.644;9.006;2022-09-09T05:13:47;14.50;99.90
21906;DHT22;11117;48.644;9.006;2022-09-09T05:16:14;14.60;99.90
21906;DHT22;11117;48.644;9.006;2022-09-09T05:18:40;14.60;99.90
21906;DHT22;11117;48.644;9.006;2022-09-09T05:21:06;14.80;99.90
21906;DHT22;11117;48.644;9.006;2022-09-09T05:23:33;14.80;99.90
21906;DHT22;11117;48.644;9.006;2022-09-09T05:25:59;14.80;99.90
21906;DHT22;11117;48.644;9.006;2022-09-09T05:28:26;14.90;99.90
21906;DHT22;11117;48.644;9.006;2022-09-09T05:30:56;15.00;99.90
21906;DHT22;11117;48.644;9.006;2022-09-09T05:33:22;15.20;99.90
21906;DHT22;11117;48.644;9.006;2022-09-09T05:35:47;15.20;99.90
21906;DHT22;11117;48.644;9.006;2022-09-09T05:38:13;15.20;99.90
21906;DHT22;11117;48.644;9.006;2022-09-09T05:40:38;15.30;99.90
21906;DHT22;11117;48.644;9.006;2022-09-09T05:43:04;15.30;99.90
21906;DHT22;11117;48.644;9.006;2022-09-09T05:45:29;15.40;99.90
21906;DHT22;11117;48.644;9.006;2022-09-09T05:47:55;15.40;99.90
21906;DHT22;11117;48.644;9.006;2022-09-09T05:50:20;15.40;99.90
21906;DHT22;11117;48.644;9.006;2022-09-09T05:52:46;15.30;99.90
21906;DHT22;11117;48.644;9.006;2022-09-09T05:55:12;15.20;99.90
21906;DHT22;11117;48.644;9.006;2022-09-09T05:57:37;15.40;99.90
21906;DHT22;11117;48.644;9.006;2022-09-09T06:00:03;15.30;99.90
21906;DHT22;11117;48.644;9.006;2022-09-09T06:02:29;15.20;99.90
21906;DHT22;11117;48.644;9.006;2022-09-09T06:04:54;15.30;99.90
21906;DHT22;11117;48.644;9.006;2022-09-09T06:07:20;15.40;99.90
21906;DHT22;11117;48.644;9.006;2022-09-09T06:09:45;15.40;99.90
21906;DHT22;11117;48.644;9.006;2022-09-09T06:12:11;15.40;99.90
21906;DHT22;11117;48.644;9.006;2022-09-09T06:14:36;15.40;99.90
21906;DHT22;11117;48.644;9.006;2022-09-09T06:17:02;15.20;99.90
21906;DHT22;11117;48.644;9.006;2022-09-09T06:19:27;15.20;99.90
21906;DHT22;11117;48.644;9.006;2022-09-09T06:21:53;15.20;99.90
21906;DHT22;11117;48.644;9.006;2022-09-09T06:24:19;15.10;99.90
21906;DHT22;11117;48.644;9.006;2022-09-09T06:26:44;15.20;99.90
21906;DHT22;11117;48.644;9.006;2022-09-09T06:29:10;15.40;99.90
21906;DHT22;11117;48.644;9.006;2022-09-09T06:31:36;15.70;99.90
21906;DHT22;11117;48.644;9.006;2022-09-09T06:34:04;15.80;99.90
21906;DHT22;11117;48.644;9.006;2022-09-09T06:36:33;16.10;99.90
21906;DHT22;11117;48.644;9.006;2022-09-09T06:39:00;16.30;99.90
21906;DHT22;11117;48.644;9.006;2022-09-09T06:41:27;16.40;99.90
21906;DHT22;11117;48.644;9.006;2022-09-09T06:43:54;16.50;99.90
21906;DHT22;11117;48.644;9.006;2022-09-09T06:46:22;16.50;99.90
21906;DHT22;11117;48.644;9.006;2022-09-09T06:48:48;16.40;99.90
21906;DHT22;11117;48.644;9.006;2022-09-09T06:53:40;16.70;99.90
21906;DHT22;11117;48.644;9.006;2022-09-09T06:56:39;16.90;99.90
21906;DHT22;11117;48.644;9.006;2022-09-09T06:59:06;17.20;99.90
21906;DHT22;11117;48.644;9.006;2022-09-09T07:01:37;17.30;99.90
21906;DHT22;11117;48.644;9.006;2022-09-09T07:04:04;17.40;99.90
21906;DHT22;11117;48.644;9.006;2022-09-09T07:06:31;17.50;99.90
21906;DHT22;11117;48.644;9.006;2022-09-09T07:09:03;17.60;99.90
21906;DHT22;11117;48.644;9.006;2022-09-09T07:11:30;17.70;99.90
21906;DHT22;11117;48.644;9.006;2022-09-09T07:13:57;17.80;99.90
21906;DHT22;11117;48.644;9.006;2022-09-09T07:16:23;18.00;99.90
21906;DHT22;11117;48.644;9.006;2022-09-09T07:18:49;18.10;99.90
21906;DHT22;11117;48.644;9.006;2022-09-09T07:21:15;18.30;99.90
21906;DHT22;11117;48.644;9.006;2022-09-09T07:23:41;18.50;99.90
21906;DHT22;11117;48.644;9.006;2022-09-09T07:26:12;18.60;99.90
21906;DHT22;11117;48.644;9.006;2022-09-09T07:28:38;18.80;99.90
21906;DHT22;11117;48.644;9.006;2022-09-09T07:31:05;19.00;99.90
21906;DHT22;11117;48.644;9.006;2022-09-09T07:33:33;19.10;99.90
21906;DHT22;11117;48.644;9.006;2022-09-09T07:36:08;19.40;99.90
21906;DHT22;11117;48.644;9.006;2022-09-09T07:38:41;19.50;99.90
21906;DHT22;11117;48.644;9.006;2022-09-09T07:41:08;19.50;99.90
21906;DHT22;11117;48.644;9.006;2022-09-09T07:43:34;19.40;99.90
21906;DHT22;11117;48.644;9.006;2022-09-09T07:46:00;19.40;99.90
21906;DHT22;11117;48.644;9.006;2022-09-09T07:48:25;19.20;99.90
21906;DHT22;11117;48.644;9.006;2022-09-09T07:50:51;19.10;99.90
21906;DHT22;11117;48.644;9.006;2022-09-09T07:53:17;19.00;99.90
21906;DHT22;11117;48.644;9.006;2022-09-09T07:55:43;19.00;99.90
21906;DHT22;11117;48.644;9.006;2022-09-09T07:58:08;19.00;99.90
21906;DHT22;11117;48.644;9.006;2022-09-09T08:00:34;19.10;99.90
21906;DHT22;11117;48.644;9.006;2022-09-09T08:03:00;19.10;99.90
21906;DHT22;11117;48.644;9.006;2022-09-09T08:05:25;19.20;99.90
21906;DHT22;11117;48.644;9.006;2022-09-09T08:07:51;19.20;99.90
21906;DHT22;11117;48.644;9.006;2022-09-09T08:10:16;19.40;99.90
21906;DHT22;11117;48.644;9.006;2022-09-09T08:12:42;19.50;99.90
21906;DHT22;11117;48.644;9.006;2022-09-09T08:15:08;19.60;99.90
21906;DHT22;11117;48.644;9.006;2022-09-09T08:17:33;19.70;99.90
21906;DHT22;11117;48.644;9.006;2022-09-09T08:19:59;20.10;99.90
21906;DHT22;11117;48.644;9.006;2022-09-09T08:22:24;20.30;99.90
21906;DHT22;11117;48.644;9.006;2022-09-09T08:24:50;20.40;99.90
21906;DHT22;11117;48.644;9.006;2022-09-09T08:27:15;20.50;99.90
21906;DHT22;11117;48.644;9.006;2022-09-09T08:29:41;20.50;99.90
21906;DHT22;11117;48.644;9.006;2022-09-09T08:32:06;20.50;99.90
21906;DHT22;11117;48.644;9.006;2022-09-09T08:34:32;20.40;99.90
21906;DHT22;11117;48.644;9.006;2022-09-09T08:36:58;20.20;99.90
21906;DHT22;11117;48.644;9.006;2022-09-09T08:39:23;20.20;99.90
21906;DHT22;11117;48.644;9.006;2022-09-09T08:44:28;20.60;99.90
21906;DHT22;11117;48.644;9.006;2022-09-09T08:50:19;21.00;99.90
21906;DHT22;11117;48.644;9.006;2022-09-09T08:55:51;21.60;99.90
21906;DHT22;11117;48.644;9.006;2022-09-09T08:58:19;21.80;99.90
21906;DHT22;11117;48.644;9.006;2022-09-09T09:00:57;21.80;99.80
21906;DHT22;11117;48.644;9.006;2022-09-09T09:11:51;19.80;99.90
21906;DHT22;11117;48.644;9.006;2022-09-09T09:14:21;19.50;99.90
21906;DHT22;11117;48.644;9.006;2022-09-09T09:16:55;19.10;99.90
21906;DHT22;11117;48.644;9.006;2022-09-09T09:19:22;19.40;99.90
21906;DHT22;11117;48.644;9.006;2022-09-09T09:24:39;19.50;99.90
21906;DHT22;11117;48.644;9.006;2022-09-09T09:29:58;19.00;99.90
21906;DHT22;11117;48.644;9.006;2022-09-09T09:32:28;18.70;99.90
21906;DHT22;11117;48.644;9.006;2022-09-09T09:34:57;18.60;99.90
21906;DHT22;11117;48.644;9.006;2022-09-09T09:37:28;18.60;99.90
21906;DHT22;11117;48.644;9.006;2022-09-09T09:39:54;18.80;99.90
21906;DHT22;11117;48.644;9.006;2022-09-09T09:42:20;18.90;99.90
21906;DHT22;11117;48.644;9.006;2022-09-09T09:44:46;19.10;99.90
21906;DHT22;11117;48.644;9.006;2022-09-09T09:47:19;19.00;99.90
21906;DHT22;11117;48.644;9.006;2022-09-09T09:52:22;19.00;99.90
21906;DHT22;11117;48.644;9.006;2022-09-09T09:54:48;18.90;99.90
21906;DHT22;11117;48.644;9.006;2022-09-09T09:57:15;18.90;99.90
21906;DHT22;11117;48.644;9.006;2022-09-09T09:59:42;18.90;99.90
21906;DHT22;11117;48.644;9.006;2022-09-09T10:02:18;19.30;99.90
21906;DHT22;11117;48.644;9.006;2022-09-09T10:04:45;19.50;99.90
21906;DHT22;11117;48.644;9.006;2022-09-09T10:07:21;19.70;99.90
21906;DHT22;11117;48.644;9.006;2022-09-09T10:09:53;19.90;99.90
21906;DHT22;11117;48.644;9.006;2022-09-09T10:12:46;20.30;99.90
21906;DHT22;11117;48.644;9.006;2022-09-09T10:46:36;20.10;99.90
21906;DHT22;11117;48.644;9.006;2022-09-09T10:54:39;20.70;99.90
21906;DHT22;11117;48.644;9.006;2022-09-09T10:59:50;20.40;99.90
21906;DHT22;11117;48.644;9.006;2022-09-09T11:02:29;20.50;99.90
21906;DHT22;11117;48.644;9.006;2022-09-09T11:04:58;20.20;99.90
21906;DHT22;11117;48.644;9.006;2022-09-09T11:13:19;19.30;99.90
21906;DHT22;11117;48.644;9.006;2022-09-09T11:15:50;18.90;99.90
21906;DHT22;11117;48.644;9.006;2022-09-09T11:18:20;18.70;99.90
21906;DHT22;11117;48.644;9.006;2022-09-09T11:20:48;18.80;99.90
21906;DHT22;11117;48.644;9.006;2022-09-09T11:23:19;18.60;99.90
21906;DHT22;11117;48.644;9.006;2022-09-09T11:25:55;18.60;99.90
21906;DHT22;11117;48.644;9.006;2022-09-09T11:34:08;17.70;99.90
21906;DHT22;11117;48.644;9.006;2022-09-09T11:44:37;18.10;99.90
21906;DHT22;11117;48.644;9.006;2022-09-09T11:47:02;18.40;99.90
21906;DHT22;11117;48.644;9.006;2022-09-09T11:49:39;18.80;99.90
21906;DHT22;11117;48.644;9.006;2022-09-09T11:52:39;18.90;99.90
21906;DHT22;11117;48.644;9.006;2022-09-09T11:55:25;19.10;99.90
21906;DHT22;11117;48.644;9.006;2022-09-09T11:58:00;19.10;99.90
21906;DHT22;11117;48.644;9.006;2022-09-09T12:02:58;19.60;99.90
21906;DHT22;11117;48.644;9.006;2022-09-09T12:05:39;19.70;99.90
21906;DHT22;11117;48.644;9.006;2022-09-09T12:08:07;20.10;99.90
21906;DHT22;11117;48.644;9.006;2022-09-09T12:10:37;20.00;99.90
21906;DHT22;11117;48.644;9.006;2022-09-09T12:13:22;19.90;98.30
21906;DHT22;11117;48.644;9.006;2022-09-09T12:15:49;20.10;99.20
21906;DHT22;11117;48.644;9.006;2022-09-09T12:23:53;19.80;98.10
21906;DHT22;11117;48.644;9.006;2022-09-09T12:36:57;19.60;99.20
21906;DHT22;11117;48.644;9.006;2022-09-09T12:39:37;19.70;99.10
21906;DHT22;11117;48.644;9.006;2022-09-09T12:42:04;20.00;98.90
21906;DHT22;11117;48.644;9.006;2022-09-09T12:44:30;19.90;97.60
21906;DHT22;11117;48.644;9.006;2022-09-09T12:46:58;19.70;97.10
21906;DHT22;11117;48.644;9.006;2022-09-09T12:49:34;19.60;96.20
21906;DHT22;11117;48.644;9.006;2022-09-09T12:52:14;19.90;96.70
21906;DHT22;11117;48.644;9.006;2022-09-09T12:54:44;20.10;95.70
21906;DHT22;11117;48.644;9.006;2022-09-09T12:57:12;20.20;96.00
21906;DHT22;11117;48.644;9.006;2022-09-09T12:59:41;20.30;95.10
21906;DHT22;11117;48.644;9.006;2022-09-09T13:02:18;20.50;94.60
21906;DHT22;11117;48.644;9.006;2022-09-09T13:04:44;20.40;95.10
21906;DHT22;11117;48.644;9.006;2022-09-09T13:07:11;20.10;94.70
21906;DHT22;11117;48.644;9.006;2022-09-09T13:09:43;20.30;95.10
21906;DHT22;11117;48.644;9.006;2022-09-09T13:12:14;20.30;95.30
21906;DHT22;11117;48.644;9.006;2022-09-09T13:14:44;20.00;94.30
21906;DHT22;11117;48.644;9.006;2022-09-09T13:17:22;20.00;95.30
21906;DHT22;11117;48.644;9.006;2022-09-09T13:19:49;20.20;94.80
21906;DHT22;11117;48.644;9.006;2022-09-09T13:22:23;20.20;95.90
21906;DHT22;11117;48.644;9.006;2022-09-09T13:24:59;20.30;95.40
21906;DHT22;11117;48.644;9.006;2022-09-09T13:27:36;20.40;94.90
21906;DHT22;11117;48.644;9.006;2022-09-09T13:30:26;20.40;95.30
21906;DHT22;11117;48.644;9.006;2022-09-09T13:38:14;21.20;94.40
21906;DHT22;11117;48.644;9.006;2022-09-09T13:40:40;21.40;93.90
21906;DHT22;11117;48.644;9.006;2022-09-09T13:43:16;21.30;93.70
21906;DHT22;11117;48.644;9.006;2022-09-09T13:45:53;21.20;93.30
21906;DHT22;11117;48.644;9.006;2022-09-09T13:48:19;21.20;93.90
21906;DHT22;11117;48.644;9.006;2022-09-09T13:51:00;21.50;94.40
21906;DHT22;11117;48.644;9.006;2022-09-09T13:53:27;21.40;93.60
21906;DHT22;11117;48.644;9.006;2022-09-09T13:55:53;21.20;92.20
21906;DHT22;11117;48.644;9.006;2022-09-09T13:58:19;21.20;91.70
21906;DHT22;11117;48.644;9.006;2022-09-09T14:00:45;21.50;92.10
21906;DHT22;11117;48.644;9.006;2022-09-09T14:03:11;21.30;90.70
21906;DHT22;11117;48.644;9.006;2022-09-09T14:05:37;21.40;90.90
21906;DHT22;11117;48.644;9.006;2022-09-09T14:08:04;21.20;90.80
21906;DHT22;11117;48.644;9.006;2022-09-09T14:10:30;21.30;91.50
21906;DHT22;11117;48.644;9.006;2022-09-09T14:12:56;21.40;89.60
21906;DHT22;11117;48.644;9.006;2022-09-09T14:15:21;21.20;88.90
21906;DHT22;11117;48.644;9.006;2022-09-09T14:17:47;21.30;90.10
21906;DHT22;11117;48.644;9.006;2022-09-09T14:20:13;21.20;88.00
21906;DHT22;11117;48.644;9.006;2022-09-09T14:22:38;21.10;87.60
21906;DHT22;11117;48.644;9.006;2022-09-09T14:25:04;21.00;89.90
21906;DHT22;11117;48.644;9.006;2022-09-09T14:27:30;21.00;90.50
21906;DHT22;11117;48.644;9.006;2022-09-09T14:29:55;21.00;90.10
21906;DHT22;11117;48.644;9.006;2022-09-09T14:32:21;20.90;90.00
21906;DHT22;11117;48.644;9.006;2022-09-09T14:34:46;21.10;88.80
21906;DHT22;11117;48.644;9.006;2022-09-09T14:37:12;21.10;87.00
21906;DHT22;11117;48.644;9.006;2022-09-09T14:39:37;21.00;87.90
21906;DHT22;11117;48.644;9.006;2022-09-09T14:42:03;20.90;87.30
21906;DHT22;11117;48.644;9.006;2022-09-09T14:44:29;20.90;87.60
21906;DHT22;11117;48.644;9.006;2022-09-09T14:46:54;20.80;88.80
21906;DHT22;11117;48.644;9.006;2022-09-09T14:49:21;20.80;88.90
21906;DHT22;11117;48.644;9.006;2022-09-09T14:51:46;20.60;88.50
21906;DHT22;11117;48.644;9.006;2022-09-09T14:54:12;20.40;88.10
21906;DHT22;11117;48.644;9.006;2022-09-09T14:56:37;20.40;90.10
21906;DHT22;11117;48.644;9.006;2022-09-09T14:59:03;20.40;90.20
21906;DHT22;11117;48.644;9.006;2022-09-09T15:01:31;20.50;90.30
21906;DHT22;11117;48.644;9.006;2022-09-09T15:04:02;20.70;90.40
21906;DHT22;11117;48.644;9.006;2022-09-09T15:06:30;21.00;90.50
21906;DHT22;11117;48.644;9.006;2022-09-09T15:08:56;21.20;90.60
21906;DHT22;11117;48.644;9.006;2022-09-09T15:11:22;21.30;90.30
21906;DHT22;11117;48.644;9.006;2022-09-09T15:13:51;21.30;90.30
21906;DHT22;11117;48.644;9.006;2022-09-09T15:16:18;21.40;90.80
21906;DHT22;11117;48.644;9.006;2022-09-09T15:18:44;21.50;90.50
21906;DHT22;11117;48.644;9.006;2022-09-09T15:21:17;21.30;90.20
21906;DHT22;11117;48.644;9.006;2022-09-09T15:23:43;21.30;90.20
21906;DHT22;11117;48.644;9.006;2022-09-09T15:26:09;21.40;89.70
21906;DHT22;11117;48.644;9.006;2022-09-09T15:28:37;21.30;87.50
21906;DHT22;11117;48.644;9.006;2022-09-09T15:31:06;21.20;86.80
21906;DHT22;11117;48.644;9.006;2022-09-09T15:33:32;21.20;88.10
21906;DHT22;11117;48.644;9.006;2022-09-09T15:35:57;21.10;87.00
21906;DHT22;11117;48.644;9.006;2022-09-09T15:38:23;20.90;87.20
21906;DHT22;11117;48.644;9.006;2022-09-09T15:40:54;20.80;87.00
21906;DHT22;11117;48.644;9.006;2022-09-09T15:43:19;20.60;88.10
21906;DHT22;11117;48.644;9.006;2022-09-09T15:45:46;20.50;87.80
21906;DHT22;11117;48.644;9.006;2022-09-09T15:48:14;20.50;89.30
21906;DHT22;11117;48.644;9.006;2022-09-09T15:50:39;20.40;89.20
21906;DHT22;11117;48.644;9.006;2022-09-09T15:53:05;20.20;89.30
21906;DHT22;11117;48.644;9.006;2022-09-09T15:55:30;20.20;90.40
21906;DHT22;11117;48.644;9.006;2022-09-09T15:57:56;20.10;90.60
21906;DHT22;11117;48.644;9.006;2022-09-09T16:00:21;20.00;90.90
21906;DHT22;11117;48.644;9.006;2022-09-09T16:02:47;19.80;90.90
21906;DHT22;11117;48.644;9.006;2022-09-09T16:05:13;19.80;91.30
21906;DHT22;11117;48.644;9.006;2022-09-09T16:07:39;19.70;91.40
21906;DHT22;11117;48.644;9.006;2022-09-09T16:10:05;19.80;91.50
21906;DHT22;11117;48.644;9.006;2022-09-09T16:12:30;19.60;91.30
21906;DHT22;11117;48.644;9.006;2022-09-09T16:14:56;19.50;90.50
21906;DHT22;11117;48.644;9.006;2022-09-09T16:17:21;19.30;90.30
21906;DHT22;11117;48.644;9.006;2022-09-09T16:19:47;19.20;90.30
21906;DHT22;11117;48.644;9.006;2022-09-09T16:22:12;19.20;90.80
21906;DHT22;11117;48.644;9.006;2022-09-09T16:24:38;19.10;91.00
21906;DHT22;11117;48.644;9.006;2022-09-09T16:27:04;19.00;91.00
21906;DHT22;11117;48.644;9.006;2022-09-09T16:29:29;18.80;90.90
21906;DHT22;11117;48.644;9.006;2022-09-09T16:31:55;18.80;90.50
21906;DHT22;11117;48.644;9.006;2022-09-09T16:34:21;18.50;90.30
21906;DHT22;11117;48.644;9.006;2022-09-09T16:36:47;18.30;90.80
21906;DHT22;11117;48.644;9.006;2022-09-09T16:39:15;18.30;91.20
21906;DHT22;11117;48.644;9.006;2022-09-09T16:41:42;18.10;91.60
21906;DHT22;11117;48.644;9.006;2022-09-09T16:44:10;18.10;92.30
21906;DHT22;11117;48.644;9.006;2022-09-09T16:46:38;18.10;93.10
21906;DHT22;11117;48.644;9.006;2022-09-09T16:49:06;18.00;93.10
21906;DHT22;11117;48.644;9.006;2022-09-09T16:51:35;18.10;93.20
21906;DHT22;11117;48.644;9.006;2022-09-09T16:54:02;18.20;93.10
21906;DHT22;11117;48.644;9.006;2022-09-09T16:56:30;18.10;93.40
21906;DHT22;11117;48.644;9.006;2022-09-09T16:59:01;18.10;93.70
21906;DHT22;11117;48.644;9.006;2022-09-09T17:01:32;18.10;93.70
21906;DHT22;11117;48.644;9.006;2022-09-09T17:04:00;18.10;93.90
21906;DHT22;11117;48.644;9.006;2022-09-09T17:06:26;18.10;94.20
21906;DHT22;11117;48.644;9.006;2022-09-09T17:08:59;18.00;94.40
21906;DHT22;11117;48.644;9.006;2022-09-09T17:11:25;18.00;94.70
21906;DHT22;11117;48.644;9.006;2022-09-09T17:13:51;17.90;94.60
21906;DHT22;11117;48.644;9.006;2022-09-09T17:16:19;17.90;94.90
21906;DHT22;11117;48.644;9.006;2022-09-09T17:18:44;17.90;95.00
21906;DHT22;11117;48.644;9.006;2022-09-09T17:21:13;17.80;95.40
21906;DHT22;11117;48.644;9.006;2022-09-09T17:23:40;17.70;95.70
21906;DHT22;11117;48.644;9.006;2022-09-09T17:26:07;17.70;96.00
21906;DHT22;11117;48.644;9.006;2022-09-09T17:28:34;17.50;96.20
21906;DHT22;11117;48.644;9.006;2022-09-09T17:31:00;17.50;96.50
21906;DHT22;11117;48.644;9.006;2022-09-09T17:33:27;17.40;96.70
21906;DHT22;11117;48.644;9.006;2022-09-09T17:35:53;17.40;96.80
21906;DHT22;11117;48.644;9.006;2022-09-09T17:38:18;17.20;97.10
21906;DHT22;11117;48.644;9.006;2022-09-09T17:40:44;17.10;97.30
21906;DHT22;11117;48.644;9.006;2022-09-09T17:43:09;16.90;97.50
21906;DHT22;11117;48.644;9.006;2022-09-09T17:45:35;16.90;97.90
21906;DHT22;11117;48.644;9.006;2022-09-09T17:48:01;16.80;98.10
21906;DHT22;11117;48.644;9.006;2022-09-09T17:50:26;16.80;98.40
21906;DHT22;11117;48.644;9.006;2022-09-09T17:52:52;16.80;98.70
21906;DHT22;11117;48.644;9.006;2022-09-09T17:55:17;16.70;98.80
21906;DHT22;11117;48.644;9.006;2022-09-09T17:57:43;16.60;99.10
21906;DHT22;11117;48.644;9.006;2022-09-09T18:00:09;16.60;99.50